createdAt,value
2022-12-08T00:00:10.185Z,640.9
2022-12-08T00:01:12.501Z,641.3
2022-12-08T00:02:16.430Z,641.2
2022-12-08T00:03:20.609Z,641.2
2022-12-08T00:04:22.372Z,641.2
2022-12-08T00:05:24.853Z,641.9
2022-12-08T00:06:26.984Z,641.8
2022-12-08T00:07:28.891Z,641.8
2022-12-08T00:08:30.542Z,641.6
2022-12-08T00:11:42.982Z,642.2
2022-12-08T00:12:45.455Z,642.1
2022-12-08T00:13:48.245Z,641.9
2022-12-08T00:14:50.443Z,641.5
2022-12-08T00:15:52.670Z,641.8
2022-12-08T00:16:55.466Z,641.5
2022-12-08T00:17:58.086Z,641.8
2022-12-08T00:19:00.296Z,641.8
2022-12-08T00:20:02.773Z,641.9
2022-12-08T00:21:05.257Z,642.2
2022-12-08T00:22:07.481Z,642
2022-12-08T00:23:09.689Z,641.9
2022-12-08T00:24:11.862Z,642
2022-12-08T00:25:14.079Z,642
2022-12-08T00:26:16.557Z,641.5
2022-12-08T00:27:18.747Z,642
2022-12-08T00:28:21.242Z,641.8
2022-12-08T00:29:23.177Z,642.2
2022-12-08T00:30:25.654Z,642.2
2022-12-08T00:31:28.475Z,642.3
2022-12-08T00:32:30.979Z,642.4
2022-12-08T00:33:33.690Z,642.5
2022-12-08T00:34:35.900Z,642.7
2022-12-08T00:36:43.366Z,642.8
2022-12-08T00:37:45.567Z,642.8
2022-12-08T00:38:48.048Z,642.8
2022-12-08T00:39:50.527Z,642.6
2022-12-08T00:40:52.722Z,643.1
2022-12-08T00:41:54.921Z,642.7
2022-12-08T00:42:57.131Z,642.9
2022-12-08T00:43:59.333Z,642.5
2022-12-08T00:45:01.567Z,642.8
2022-12-08T00:46:04.604Z,643
2022-12-08T00:47:07.102Z,643.4
2022-12-08T00:48:09.300Z,643.1
2022-12-08T00:49:11.617Z,643.4
2022-12-08T00:50:14.100Z,643.3
2022-12-08T00:51:16.328Z,643.7
2022-12-08T00:52:18.523Z,643.4
2022-12-08T00:53:21.019Z,643.9
2022-12-08T00:54:23.518Z,643.6
2022-12-08T00:55:26.014Z,643.8
2022-12-08T00:56:28.497Z,643.6
2022-12-08T00:57:30.692Z,643.7
2022-12-08T00:58:32.909Z,643.9
2022-12-08T00:59:35.436Z,644.2
2022-12-08T01:00:37.910Z,644.5
2022-12-08T01:01:40.964Z,644.1
2022-12-08T01:02:43.489Z,644.3
2022-12-08T01:03:46.410Z,643.3
2022-12-08T01:04:49.066Z,643
2022-12-08T01:05:51.532Z,643.9
2022-12-08T01:06:53.736Z,643.8
2022-12-08T01:07:56.408Z,643.7
2022-12-08T01:08:58.347Z,644.1
2022-12-08T01:10:00.585Z,644
2022-12-08T01:11:03.082Z,644.2
2022-12-08T01:12:05.009Z,644.1
2022-12-08T01:13:07.498Z,644.5
2022-12-08T01:14:09.978Z,644
2022-12-08T01:15:12.247Z,644.4
2022-12-08T01:16:14.989Z,644
2022-12-08T01:17:17.501Z,643.9
2022-12-08T01:18:20.010Z,644
2022-12-08T01:19:21.658Z,644.1
2022-12-08T01:20:24.258Z,644
2022-12-08T01:21:26.462Z,643.7
2022-12-08T01:22:28.950Z,644
2022-12-08T01:23:31.193Z,644.1
2022-12-08T01:24:33.681Z,644.4
2022-12-08T01:25:36.177Z,644
2022-12-08T01:26:38.679Z,644
2022-12-08T01:27:41.175Z,644.4
2022-12-08T01:28:43.657Z,644.2
2022-12-08T01:29:46.152Z,644.3
2022-12-08T01:30:48.659Z,644.3
2022-12-08T01:31:51.208Z,644.7
2022-12-08T01:32:53.683Z,644.7
2022-12-08T01:33:56.169Z,644.8
2022-12-08T01:34:58.640Z,644.8
2022-12-08T01:36:01.265Z,645
2022-12-08T01:37:03.460Z,644.9
2022-12-08T01:38:05.950Z,645.1
2022-12-08T01:39:08.430Z,644.9
2022-12-08T01:40:10.994Z,645.4
2022-12-08T01:41:13.473Z,645.4
2022-12-08T01:42:15.953Z,645.6
2022-12-08T01:43:18.421Z,645.8
2022-12-08T01:44:20.594Z,645.9
2022-12-08T01:45:22.799Z,645.8
2022-12-08T01:46:25.419Z,645.9
2022-12-08T01:47:27.664Z,646.1
2022-12-08T01:48:30.275Z,646.1
2022-12-08T01:49:32.205Z,646.4
2022-12-08T01:50:34.690Z,646.5
2022-12-08T01:51:37.009Z,646.5
2022-12-08T01:52:39.486Z,646.6
2022-12-08T01:53:41.962Z,646.6
2022-12-08T01:54:44.558Z,646.4
2022-12-08T01:55:47.031Z,646.2
2022-12-08T01:56:49.235Z,646.6
2022-12-08T01:57:51.435Z,646.5
2022-12-08T01:58:53.915Z,646.4
2022-12-08T01:59:56.120Z,646.7
2022-12-08T02:00:58.909Z,646.9
2022-12-08T02:02:01.747Z,647.2
2022-12-08T02:03:04.819Z,646.8
2022-12-08T02:04:06.821Z,647.1
2022-12-08T02:05:09.297Z,647.4
2022-12-08T02:06:11.785Z,647.3
2022-12-08T02:07:14.373Z,647.3
2022-12-08T02:08:17.310Z,647.2
2022-12-08T02:09:19.547Z,647.5
2022-12-08T02:10:21.468Z,647.2
2022-12-08T02:11:23.948Z,647.6
2022-12-08T02:12:26.153Z,647.5
2022-12-08T02:13:28.354Z,647.5
2022-12-08T02:14:30.824Z,647.9
2022-12-08T02:15:33.641Z,648.2
2022-12-08T02:16:35.879Z,648.7
2022-12-08T02:17:38.068Z,648.7
2022-12-08T02:18:40.546Z,648.6
2022-12-08T02:19:42.743Z,649.1
2022-12-08T02:20:45.218Z,649.1
2022-12-08T02:21:47.702Z,649.4
2022-12-08T02:22:50.279Z,649
2022-12-08T02:23:52.761Z,649.2
2022-12-08T02:24:55.241Z,649.5
2022-12-08T02:25:56.893Z,649.4
2022-12-08T02:26:59.074Z,649.4
2022-12-08T02:28:01.565Z,649.2
2022-12-08T02:29:03.774Z,649.4
2022-12-08T02:30:08.115Z,649.8
2022-12-08T02:31:11.112Z,649.6
2022-12-08T02:32:13.365Z,649.7
2022-12-08T02:33:15.876Z,650
2022-12-08T02:34:18.089Z,649.8
2022-12-08T02:35:20.290Z,650
2022-12-08T02:36:22.486Z,650
2022-12-08T02:37:24.964Z,650.1
2022-12-08T02:38:27.536Z,650.1
2022-12-08T02:39:30.033Z,650.3
2022-12-08T02:40:32.505Z,650.3
2022-12-08T02:41:34.990Z,650.3
2022-12-08T02:42:36.915Z,650.1
2022-12-08T02:43:39.402Z,649.9
2022-12-08T02:44:41.602Z,649.8
2022-12-08T02:45:44.095Z,649.7
2022-12-08T02:46:46.509Z,650.1
2022-12-08T02:47:48.485Z,649.8
2022-12-08T02:48:50.976Z,650.2
2022-12-08T02:49:53.219Z,650.3
2022-12-08T02:50:55.135Z,650.5
2022-12-08T02:51:57.074Z,650.4
2022-12-08T02:52:59.556Z,650.6
2022-12-08T02:54:02.216Z,650.5
2022-12-08T02:55:03.880Z,650.5
2022-12-08T02:56:06.366Z,650.9
2022-12-08T02:57:08.843Z,650.7
2022-12-08T02:58:11.046Z,651.3
2022-12-08T02:59:13.251Z,651
2022-12-08T03:00:15.766Z,651
2022-12-08T03:01:18.579Z,651.5
2022-12-08T03:02:21.550Z,651.3
2022-12-08T03:03:23.505Z,651.8
2022-12-08T03:04:26.010Z,652
2022-12-08T03:05:28.490Z,652
2022-12-08T03:06:30.983Z,652.3
2022-12-08T03:07:33.216Z,652
2022-12-08T03:08:35.432Z,652.3
2022-12-08T03:09:38.045Z,651.7
2022-12-08T03:10:40.521Z,651.8
2022-12-08T03:11:42.708Z,652
2022-12-08T03:12:44.923Z,652
2022-12-08T03:13:46.854Z,652.3
2022-12-08T03:14:49.354Z,652.2
2022-12-08T03:15:52.148Z,652.3
2022-12-08T03:16:54.384Z,652.5
2022-12-08T03:17:56.591Z,652.8
2022-12-08T03:18:58.509Z,652.6
2022-12-08T03:20:01.001Z,652.9
2022-12-08T03:21:03.554Z,652.7
2022-12-08T03:22:05.503Z,652.6
2022-12-08T03:23:07.701Z,652.6
2022-12-08T03:24:09.627Z,652.5
2022-12-08T03:25:12.234Z,652.8
2022-12-08T03:26:14.158Z,653.2
2022-12-08T03:27:16.529Z,652.7
2022-12-08T03:28:19.006Z,653
2022-12-08T03:29:21.494Z,653.1
2022-12-08T03:30:23.783Z,652.7
2022-12-08T03:31:26.904Z,653.3
2022-12-08T03:32:29.164Z,653.1
2022-12-08T03:33:31.655Z,652.9
2022-12-08T03:34:34.144Z,653.7
2022-12-08T03:35:36.648Z,653.7
2022-12-08T03:36:39.142Z,653.9
2022-12-08T03:37:41.354Z,653.6
2022-12-08T03:38:43.276Z,653.7
2022-12-08T03:39:45.756Z,653.6
2022-12-08T03:40:48.368Z,653.5
2022-12-08T03:41:50.573Z,654.1
2022-12-08T03:42:52.790Z,653.9
2022-12-08T03:43:54.720Z,654.1
2022-12-08T03:44:56.917Z,653.7
2022-12-08T03:45:59.051Z,654
2022-12-08T03:47:01.264Z,654.2
2022-12-08T03:48:03.743Z,654.2
2022-12-08T03:49:06.231Z,654.2
2022-12-08T03:50:08.813Z,654.4
2022-12-08T03:51:11.296Z,654.6
2022-12-08T03:52:13.509Z,654.1
2022-12-08T03:53:15.721Z,654.7
2022-12-08T03:54:17.920Z,654.6
2022-12-08T03:55:20.109Z,654.4
2022-12-08T03:56:22.704Z,654.6
2022-12-08T03:57:25.206Z,654.7
2022-12-08T03:58:28.468Z,654.9
2022-12-08T03:59:34.636Z,654.6
2022-12-08T04:00:36.855Z,654.5
2022-12-08T04:01:39.814Z,654.8
2022-12-08T04:02:42.502Z,654.7
2022-12-08T04:03:45.107Z,655
2022-12-08T04:04:47.297Z,654.7
2022-12-08T04:05:49.776Z,655.1
2022-12-08T04:06:51.692Z,654.7
2022-12-08T04:07:54.301Z,655.1
2022-12-08T04:08:55.955Z,655.2
2022-12-08T04:09:58.441Z,655.1
2022-12-08T04:11:00.648Z,655.4
2022-12-08T04:12:03.237Z,655.5
2022-12-08T04:13:05.450Z,655.1
2022-12-08T04:14:07.671Z,655.3
2022-12-08T04:15:09.887Z,655.6
2022-12-08T04:16:12.412Z,655.5
2022-12-08T04:17:14.632Z,655.7
2022-12-08T04:18:17.117Z,655.1
2022-12-08T04:19:19.607Z,655.4
2022-12-08T04:20:22.089Z,655.7
2022-12-08T04:21:24.592Z,655.5
2022-12-08T04:22:27.877Z,655.4
2022-12-08T04:23:29.836Z,654.7
2022-12-08T04:24:32.067Z,654.9
2022-12-08T04:25:34.272Z,654.5
2022-12-08T04:26:36.474Z,655.3
2022-12-08T04:27:39.055Z,655.5
2022-12-08T04:28:41.547Z,655.4
2022-12-08T04:29:43.771Z,655.7
2022-12-08T04:30:46.261Z,656.2
2022-12-08T04:31:48.879Z,656
2022-12-08T04:32:50.842Z,655.8
2022-12-08T04:33:53.049Z,656.3
2022-12-08T04:34:55.528Z,656.4
2022-12-08T04:35:57.445Z,656.2
2022-12-08T04:36:59.652Z,656.3
2022-12-08T04:38:02.151Z,656.3
2022-12-08T04:39:04.629Z,656.3
2022-12-08T04:40:08.318Z,656.5
2022-12-08T04:41:10.811Z,656.4
2022-12-08T04:42:12.760Z,656.2
2022-12-08T04:43:15.075Z,656.1
2022-12-08T04:44:17.575Z,656.9
2022-12-08T04:45:20.092Z,657.1
2022-12-08T04:46:23.054Z,656.9
2022-12-08T04:47:25.574Z,656.5
2022-12-08T04:48:28.048Z,656.9
2022-12-08T04:49:30.255Z,657.1
2022-12-08T04:50:32.448Z,657.1
2022-12-08T04:51:34.388Z,657.4
2022-12-08T04:52:36.595Z,657.3
2022-12-08T04:54:44.052Z,657.1
2022-12-08T04:55:46.530Z,657.2
2022-12-08T04:56:49.006Z,656.9
2022-12-08T04:57:51.205Z,657.2
2022-12-08T04:58:53.786Z,656.6
2022-12-08T04:59:56.255Z,657
2022-12-08T05:00:59.086Z,657
2022-12-08T05:02:02.693Z,656.8
2022-12-08T05:03:05.761Z,656.3
2022-12-08T05:04:08.252Z,655.9
2022-12-08T05:05:10.828Z,656.3
2022-12-08T05:06:13.046Z,656.2
2022-12-08T05:07:15.607Z,656.4
2022-12-08T05:08:18.237Z,656.8
2022-12-08T05:09:20.740Z,656.3
2022-12-08T05:10:22.673Z,656.5
2022-12-08T05:11:25.203Z,657
2022-12-08T05:12:27.700Z,656.6
2022-12-08T05:13:30.199Z,656.8
2022-12-08T05:14:32.532Z,656.6
2022-12-08T05:15:35.009Z,656.7
2022-12-08T05:16:37.703Z,656.4
2022-12-08T05:17:39.388Z,656.3
2022-12-08T05:18:41.870Z,656.6
2022-12-08T05:19:44.382Z,656.5
2022-12-08T05:20:46.854Z,656.8
2022-12-08T05:21:48.787Z,656.4
2022-12-08T05:22:50.995Z,657
2022-12-08T05:23:52.913Z,656.7
2022-12-08T05:24:55.108Z,656.9
2022-12-08T05:25:57.311Z,656.7
2022-12-08T05:26:59.533Z,657.2
2022-12-08T05:29:06.997Z,657.3
2022-12-08T05:30:09.648Z,657.6
2022-12-08T05:31:12.068Z,657.8
2022-12-08T05:32:14.021Z,657.7
2022-12-08T05:33:16.513Z,657.7
2022-12-08T05:34:18.718Z,658.5
2022-12-08T05:35:21.209Z,658.1
2022-12-08T05:36:23.150Z,658.1
2022-12-08T05:37:25.633Z,658.7
2022-12-08T05:38:28.111Z,658.6
2022-12-08T05:39:30.669Z,658.2
2022-12-08T05:40:32.875Z,658.7
2022-12-08T05:41:35.074Z,658.7
2022-12-08T05:42:37.549Z,658.1
2022-12-08T05:43:39.855Z,658.4
2022-12-08T05:44:42.369Z,658.7
2022-12-08T05:45:45.492Z,658.4
2022-12-08T05:46:48.017Z,658.5
2022-12-08T05:47:50.227Z,658.7
2022-12-08T05:48:52.748Z,658.9
2022-12-08T05:49:54.962Z,659.5
2022-12-08T05:50:57.445Z,659
2022-12-08T05:51:59.665Z,659
2022-12-08T05:53:02.137Z,658.9
2022-12-08T05:54:04.346Z,658.6
2022-12-08T05:55:06.835Z,658.4
2022-12-08T05:56:09.453Z,658.6
2022-12-08T05:57:11.935Z,658.1
2022-12-08T05:58:14.418Z,658.8
2022-12-08T05:59:16.649Z,658.3
2022-12-08T06:00:19.158Z,658.7
2022-12-08T06:01:21.841Z,658.7
2022-12-08T06:02:25.158Z,658.1
2022-12-08T06:03:28.186Z,658.7
2022-12-08T06:04:30.732Z,658.4
2022-12-08T06:05:33.215Z,658.7
2022-12-08T06:06:35.703Z,658.8
2022-12-08T06:07:38.207Z,659
2022-12-08T06:08:40.414Z,658.5
2022-12-08T06:09:42.914Z,659.2
2022-12-08T06:10:45.216Z,659.1
2022-12-08T06:11:47.423Z,658.9
2022-12-08T06:12:49.917Z,658.9
2022-12-08T06:13:52.399Z,659.3
2022-12-08T06:14:54.620Z,659.4
2022-12-08T06:15:57.138Z,658.9
2022-12-08T06:17:00.154Z,659.2
2022-12-08T06:18:02.437Z,658.9
2022-12-08T06:19:04.651Z,658.7
2022-12-08T06:20:08.184Z,659.1
2022-12-08T06:21:10.391Z,659.3
2022-12-08T06:22:12.599Z,659.8
2022-12-08T06:23:15.080Z,658.9
2022-12-08T06:24:17.300Z,658.9
2022-12-08T06:25:19.211Z,659.2
2022-12-08T06:26:21.704Z,659.1
2022-12-08T06:27:23.911Z,659
2022-12-08T06:28:26.177Z,658.9
2022-12-08T06:29:28.393Z,658.7
2022-12-08T06:30:30.619Z,658.8
2022-12-08T06:31:33.331Z,658.7
2022-12-08T06:32:36.241Z,658.4
2022-12-08T06:33:38.750Z,659
2022-12-08T06:34:41.241Z,658.8
2022-12-08T06:35:43.734Z,658.3
2022-12-08T06:36:46.227Z,659
2022-12-08T06:37:48.421Z,659.2
2022-12-08T06:38:50.402Z,658.6
2022-12-08T06:39:52.636Z,659.2
2022-12-08T06:40:54.559Z,659
2022-12-08T06:41:56.779Z,659.2
2022-12-08T06:42:59.256Z,659.4
2022-12-08T06:44:00.906Z,659.5
2022-12-08T06:45:03.126Z,659.3
2022-12-08T06:46:05.451Z,658.7
2022-12-08T06:47:07.415Z,659.2
2022-12-08T06:48:10.017Z,658.9
2022-12-08T06:49:12.503Z,659.6
2022-12-08T06:50:15.078Z,659.6
2022-12-08T06:51:17.649Z,659.6
2022-12-08T06:52:19.888Z,659.6
2022-12-08T06:53:22.076Z,660.4
2022-12-08T06:54:24.299Z,660.2
2022-12-08T06:56:31.761Z,660.3
2022-12-08T06:57:34.248Z,659.9
2022-12-08T06:58:36.477Z,660
2022-12-08T06:59:38.385Z,659.8
2022-12-08T07:00:40.609Z,659.9
2022-12-08T07:01:43.403Z,659.9
2022-12-08T07:02:46.637Z,660
2022-12-08T07:03:49.350Z,659.4
2022-12-08T07:04:51.367Z,659.3
2022-12-08T07:05:53.590Z,659.5
2022-12-08T07:06:55.814Z,659.4
2022-12-08T07:07:58.499Z,659.3
2022-12-08T07:09:01.058Z,659.4
2022-12-08T07:10:05.608Z,659.5
2022-12-08T07:11:07.953Z,659.5
2022-12-08T07:12:10.462Z,659
2022-12-08T07:13:12.416Z,658.8
2022-12-08T07:14:14.666Z,658.8
2022-12-08T07:15:17.205Z,658.3
2022-12-08T07:16:19.960Z,658.1
2022-12-08T07:17:22.197Z,658.8
2022-12-08T07:18:24.690Z,658.4
2022-12-08T07:19:27.420Z,658.5
2022-12-08T07:20:30.393Z,658
2022-12-08T07:21:32.897Z,658.2
2022-12-08T07:22:35.396Z,658.1
2022-12-08T07:23:37.896Z,657.9
2022-12-08T07:24:54.793Z,658
2022-12-08T07:25:57.269Z,658.1
2022-12-08T07:26:59.482Z,658.4
2022-12-08T07:28:01.409Z,658.1
2022-12-08T07:29:03.635Z,658
2022-12-08T07:30:07.636Z,657.7
2022-12-08T07:31:10.451Z,657.8
2022-12-08T07:32:12.986Z,657.8
2022-12-08T07:33:15.189Z,657.7
2022-12-08T07:34:17.689Z,657.9
2022-12-08T07:35:20.307Z,657.9
2022-12-08T07:36:22.844Z,658.1
2022-12-08T07:37:25.061Z,657.7
2022-12-08T07:38:27.557Z,658.1
2022-12-08T07:39:30.033Z,657.8
2022-12-08T07:40:32.513Z,657.6
2022-12-08T07:41:34.728Z,657.9
2022-12-08T07:42:37.210Z,657.6
2022-12-08T07:43:39.424Z,657.9
2022-12-08T07:44:41.640Z,657.7
2022-12-08T07:45:44.362Z,657.5
2022-12-08T07:46:47.062Z,657.8
2022-12-08T07:47:49.606Z,657.8
2022-12-08T07:48:52.097Z,657.8
2022-12-08T07:49:54.328Z,657.4
2022-12-08T07:50:56.971Z,657.3
2022-12-08T07:51:59.177Z,657.2
2022-12-08T07:53:01.544Z,657.7
2022-12-08T07:54:04.049Z,657.4
2022-12-08T07:55:06.527Z,657.7
2022-12-08T07:56:09.026Z,657.8
2022-12-08T07:57:11.251Z,658
2022-12-08T07:58:13.464Z,657.7
2022-12-08T07:59:15.963Z,657.6
2022-12-08T08:00:18.173Z,657.9
2022-12-08T08:01:21.210Z,657.5
2022-12-08T08:03:28.784Z,657.6
2022-12-08T08:04:31.393Z,657.6
2022-12-08T08:05:33.895Z,657.7
2022-12-08T08:06:36.498Z,657.8
2022-12-08T08:07:39.007Z,658.1
2022-12-08T08:08:40.971Z,657.9
2022-12-08T08:09:43.183Z,658
2022-12-08T08:10:45.673Z,658.3
2022-12-08T08:12:53.167Z,658.5
2022-12-08T08:13:55.684Z,658.1
2022-12-08T08:14:57.908Z,658.1
2022-12-08T08:16:00.956Z,657.8
2022-12-08T08:17:04.119Z,657.8
2022-12-08T08:18:06.406Z,658
2022-12-08T08:19:08.619Z,657.9
2022-12-08T08:20:10.557Z,657.8
2022-12-08T08:22:18.201Z,657.8
2022-12-08T08:23:20.449Z,657.9
2022-12-08T08:24:22.934Z,657.6
2022-12-08T08:25:25.455Z,657.8
2022-12-08T08:26:27.953Z,657.8
2022-12-08T08:27:29.892Z,657.9
2022-12-08T08:28:32.154Z,658
2022-12-08T08:29:34.731Z,657.7
2022-12-08T08:30:37.232Z,657.8
2022-12-08T08:31:40.397Z,657.9
2022-12-08T08:32:42.951Z,657.8
2022-12-08T08:33:45.157Z,657.8
2022-12-08T08:34:47.104Z,658.2
2022-12-08T08:35:48.744Z,658.1
2022-12-08T08:36:51.351Z,658.2
2022-12-08T08:37:54.015Z,658.1
2022-12-08T08:38:55.941Z,657.9
2022-12-08T08:39:58.151Z,657.9
2022-12-08T08:41:00.869Z,658.2
2022-12-08T08:42:03.076Z,658
2022-12-08T08:43:05.263Z,658
2022-12-08T08:44:07.500Z,658.1
2022-12-08T08:45:10.017Z,658
2022-12-08T08:46:12.693Z,658.6
2022-12-08T08:47:14.648Z,658
2022-12-08T08:48:16.868Z,658
2022-12-08T08:49:19.110Z,658.3
2022-12-08T08:50:21.312Z,658.4
2022-12-08T08:51:23.535Z,658.1
2022-12-08T08:52:26.014Z,658.2
2022-12-08T08:53:28.657Z,657.7
2022-12-08T08:54:31.173Z,658.2
2022-12-08T08:55:33.381Z,658
2022-12-08T08:56:35.589Z,657.7
2022-12-08T08:57:37.496Z,657.7
2022-12-08T08:58:39.701Z,657.8
2022-12-08T08:59:41.936Z,657.7
2022-12-08T09:00:44.163Z,657.8
2022-12-08T09:01:47.123Z,657.3
2022-12-08T09:02:49.348Z,657.6
2022-12-08T09:03:51.556Z,657.9
2022-12-08T09:04:54.489Z,657.9
2022-12-08T09:05:57.492Z,657.8
2022-12-08T09:07:00.001Z,658
2022-12-08T09:08:02.862Z,657.7
2022-12-08T09:09:05.521Z,657.8
2022-12-08T09:10:09.494Z,657.9
2022-12-08T09:11:11.861Z,658.1
2022-12-08T09:12:14.346Z,657.9
2022-12-08T09:13:16.582Z,657.8
2022-12-08T09:14:18.507Z,657.6
2022-12-08T09:15:21.008Z,658
2022-12-08T09:16:23.656Z,658.1
2022-12-08T09:17:25.946Z,658
2022-12-08T09:18:27.875Z,658.4
2022-12-08T09:19:30.376Z,657.9
2022-12-08T09:20:32.669Z,657.9
2022-12-08T09:21:34.643Z,658.2
2022-12-08T09:22:36.847Z,658.2
2022-12-08T09:23:39.082Z,658.5
2022-12-08T09:24:41.704Z,658.5
2022-12-08T09:25:43.927Z,659.1
2022-12-08T09:26:46.168Z,658.9
2022-12-08T09:27:48.100Z,658.7
2022-12-08T09:28:50.595Z,659
2022-12-08T09:29:53.083Z,658.8
2022-12-08T09:30:55.895Z,659
2022-12-08T09:31:58.695Z,658.8
2022-12-08T09:33:00.999Z,659.3
2022-12-08T09:34:03.563Z,659.6
2022-12-08T09:35:05.800Z,660
2022-12-08T09:36:07.756Z,659.8
2022-12-08T09:37:10.055Z,659.9
2022-12-08T09:38:12.298Z,659.7
2022-12-08T09:39:14.806Z,659.8
2022-12-08T09:40:17.201Z,660.3
2022-12-08T09:41:19.475Z,660.5
2022-12-08T09:42:21.709Z,660.4
2022-12-08T09:43:24.001Z,660.7
2022-12-08T09:44:26.532Z,661.2
2022-12-08T09:45:28.223Z,661.4
2022-12-08T09:46:31.139Z,661.3
2022-12-08T09:48:38.110Z,661.4
2022-12-08T09:49:40.344Z,661.1
2022-12-08T09:50:42.575Z,661
2022-12-08T09:51:45.079Z,661.4
2022-12-08T09:52:47.473Z,661.3
2022-12-08T09:53:50.397Z,661.3
2022-12-08T09:54:52.881Z,661.8
2022-12-08T09:55:55.201Z,662
2022-12-08T09:56:57.443Z,661.9
2022-12-08T09:58:00.152Z,662.3
2022-12-08T09:59:02.650Z,662.5
2022-12-08T10:00:07.270Z,662.5
2022-12-08T10:01:09.967Z,662.6
2022-12-08T10:02:12.834Z,662.4
2022-12-08T10:04:20.459Z,662.8
2022-12-08T10:05:22.945Z,663.2
2022-12-08T10:06:25.243Z,663
2022-12-08T10:07:27.193Z,663.4
2022-12-08T10:08:30.301Z,663.6
2022-12-08T10:09:32.837Z,663.6
2022-12-08T10:10:35.058Z,663.7
2022-12-08T10:11:37.664Z,663.9
2022-12-08T10:12:39.870Z,664
2022-12-08T10:13:42.360Z,663.6
2022-12-08T10:14:44.849Z,663.7
2022-12-08T10:15:47.558Z,663.8
2022-12-08T10:16:50.365Z,664.4
2022-12-08T10:17:52.914Z,664.2
2022-12-08T10:18:55.161Z,664.4
2022-12-08T10:19:57.392Z,664.1
2022-12-08T10:20:59.583Z,664.3
2022-12-08T10:22:01.795Z,664.4
2022-12-08T10:23:04.012Z,664.6
2022-12-08T10:24:06.235Z,664.9
2022-12-08T10:25:08.715Z,665
2022-12-08T10:26:10.938Z,665.2
2022-12-08T10:27:13.306Z,665.4
2022-12-08T10:28:15.799Z,665.3
2022-12-08T10:29:18.328Z,665.5
2022-12-08T10:30:21.012Z,665.4
2022-12-08T10:31:23.792Z,665.7
2022-12-08T10:32:26.375Z,665.8
2022-12-08T10:33:28.877Z,665.9
2022-12-08T10:34:31.379Z,666.1
2022-12-08T10:35:33.876Z,666.2
2022-12-08T10:36:36.356Z,666.1
2022-12-08T10:37:38.844Z,666.2
2022-12-08T10:38:41.056Z,666.2
2022-12-08T10:39:43.560Z,666.2
2022-12-08T10:40:47.821Z,666.3
2022-12-08T10:41:50.310Z,667
2022-12-08T10:42:53.004Z,667.4
2022-12-08T10:43:55.212Z,667.2
2022-12-08T10:44:57.438Z,667.4
2022-12-08T10:45:59.917Z,667.4
2022-12-08T10:47:02.612Z,667.5
2022-12-08T10:48:04.620Z,667.4
2022-12-08T10:49:06.815Z,667.4
2022-12-08T10:50:09.572Z,667.2
2022-12-08T10:51:12.054Z,667.2
2022-12-08T10:52:14.555Z,667.3
2022-12-08T10:53:17.061Z,667.4
2022-12-08T10:55:23.729Z,667.9
2022-12-08T10:56:26.271Z,667.8
2022-12-08T10:57:28.797Z,668.3
2022-12-08T10:58:31.412Z,668.1
2022-12-08T10:59:33.923Z,668.2
2022-12-08T11:00:37.285Z,668.5
2022-12-08T11:01:40.544Z,668.4
2022-12-08T11:02:43.204Z,668.4
2022-12-08T11:03:45.713Z,668.5
2022-12-08T11:04:47.647Z,668.6
2022-12-08T11:05:50.138Z,668.4
2022-12-08T11:06:52.377Z,668.5
2022-12-08T11:07:55.137Z,668.8
2022-12-08T11:08:57.122Z,668.7
2022-12-08T11:09:59.338Z,669.3
2022-12-08T11:11:01.540Z,669.5
2022-12-08T11:12:04.040Z,669.6
2022-12-08T11:13:06.264Z,669.8
2022-12-08T11:14:08.618Z,670
2022-12-08T11:15:10.847Z,669.7
2022-12-08T11:16:13.529Z,669.7
2022-12-08T11:17:16.057Z,670
2022-12-08T11:18:18.271Z,670.4
2022-12-08T11:19:19.943Z,670.7
2022-12-08T11:20:22.176Z,670.6
2022-12-08T11:21:24.709Z,670.6
2022-12-08T11:22:27.225Z,671
2022-12-08T11:23:29.431Z,670.4
2022-12-08T11:25:36.956Z,671
2022-12-08T11:26:38.867Z,670.8
2022-12-08T11:27:40.798Z,670.7
2022-12-08T11:28:42.738Z,670.8
2022-12-08T11:29:45.366Z,671
2022-12-08T11:30:47.849Z,671
2022-12-08T11:31:50.709Z,670.9
2022-12-08T11:32:52.990Z,670.8
2022-12-08T11:33:55.493Z,671
2022-12-08T11:34:57.433Z,671.4
2022-12-08T11:35:59.916Z,671.4
2022-12-08T11:37:02.413Z,671.8
2022-12-08T11:39:09.906Z,671.7
2022-12-08T11:40:12.113Z,671
2022-12-08T11:42:19.295Z,671.9
2022-12-08T11:43:21.504Z,672
2022-12-08T11:44:23.730Z,671.9
2022-12-08T11:45:26.403Z,672.3
2022-12-08T11:46:29.046Z,672.5
2022-12-08T11:47:31.017Z,672.3
2022-12-08T11:48:33.523Z,672.4
2022-12-08T11:49:36.022Z,672.6
2022-12-08T11:50:38.229Z,672.3
2022-12-08T11:51:40.442Z,672.5
2022-12-08T11:52:42.941Z,672.8
2022-12-08T11:53:45.429Z,673
2022-12-08T11:54:47.914Z,672.8
2022-12-08T11:55:52.243Z,673.2
2022-12-08T11:56:53.884Z,672.8
2022-12-08T11:57:56.486Z,673.1
2022-12-08T11:58:59.006Z,673.3
2022-12-08T12:00:01.206Z,673.1
2022-12-08T12:01:03.518Z,672.8
2022-12-08T12:02:06.466Z,673.1
2022-12-08T12:03:08.825Z,672.8
2022-12-08T12:04:11.235Z,673.5
2022-12-08T12:05:13.999Z,673.2
2022-12-08T12:08:28.070Z,673.8
2022-12-08T12:09:30.620Z,673.6
2022-12-08T12:10:33.105Z,673.6
2022-12-08T12:11:35.316Z,673.7
2022-12-08T12:13:42.812Z,673.8
2022-12-08T12:14:45.026Z,674.3
2022-12-08T12:15:47.241Z,673.9
2022-12-08T12:16:50.316Z,674
2022-12-08T12:17:52.835Z,674.2
2022-12-08T12:18:55.325Z,673.8
2022-12-08T12:19:57.803Z,674.2
2022-12-08T12:21:00.012Z,673.9
2022-12-08T12:22:01.929Z,674
2022-12-08T12:23:04.451Z,674.2
2022-12-08T12:24:06.944Z,673.8
2022-12-08T12:25:09.425Z,674.2
2022-12-08T12:26:11.944Z,674.1
2022-12-08T12:27:14.578Z,674.3
2022-12-08T12:28:16.581Z,674.2
2022-12-08T12:29:18.529Z,674.1
2022-12-08T12:30:20.759Z,674.5
2022-12-08T12:31:23.184Z,674.6
2022-12-08T12:32:25.810Z,674.6
2022-12-08T12:33:28.300Z,674.2
2022-12-08T12:34:30.787Z,674.4
2022-12-08T12:35:32.982Z,674.1
2022-12-08T12:36:34.660Z,674.5
2022-12-08T12:37:37.155Z,674.4
2022-12-08T12:38:39.385Z,674
2022-12-08T12:39:41.577Z,674.9
2022-12-08T12:40:43.779Z,674.4
2022-12-08T12:41:45.427Z,674.5
2022-12-08T12:42:47.631Z,674.6
2022-12-08T12:43:49.836Z,674.7
2022-12-08T12:44:52.324Z,675
2022-12-08T12:45:54.556Z,675.3
2022-12-08T12:46:57.070Z,675.3
2022-12-08T12:47:59.673Z,675.5
2022-12-08T12:49:01.319Z,675.5
2022-12-08T12:50:05.118Z,675.3
2022-12-08T12:51:07.592Z,675.9
2022-12-08T12:52:09.248Z,676
2022-12-08T12:54:16.727Z,676
2022-12-08T12:55:18.957Z,676.3
2022-12-08T12:56:21.446Z,676.3
2022-12-08T12:57:23.119Z,676.2
2022-12-08T12:58:25.526Z,676.2
2022-12-08T12:59:28.016Z,675.6
2022-12-08T13:00:30.246Z,675.5
2022-12-08T13:01:33.198Z,675.9
2022-12-08T13:02:35.843Z,676
2022-12-08T13:03:38.513Z,675.8
2022-12-08T13:04:40.747Z,675.8
2022-12-08T13:05:43.235Z,676.3
2022-12-08T13:06:45.714Z,676.6
2022-12-08T13:07:47.750Z,676.1
2022-12-08T13:08:49.973Z,676.8
2022-12-08T13:09:52.458Z,676.8
2022-12-08T13:10:54.667Z,676.6
2022-12-08T13:11:56.900Z,676.9
2022-12-08T13:12:59.408Z,677
2022-12-08T13:14:01.637Z,677
2022-12-08T13:15:04.155Z,677.3
2022-12-08T13:17:12.339Z,677.2
2022-12-08T13:18:14.883Z,677.4
2022-12-08T13:19:17.542Z,677.4
2022-12-08T13:20:19.487Z,677.4
2022-12-08T13:21:22.145Z,677.8
2022-12-08T13:22:24.421Z,677.9
2022-12-08T13:23:26.904Z,677.8
2022-12-08T13:24:29.134Z,678.4
2022-12-08T13:26:36.321Z,678.9
2022-12-08T13:27:38.528Z,678.6
2022-12-08T13:28:41.025Z,678.1
2022-12-08T13:29:43.528Z,678.4
2022-12-08T13:30:46.278Z,678.8
2022-12-08T13:33:58.795Z,678.9
2022-12-08T13:35:01.701Z,678.6
2022-12-08T13:36:04.195Z,678.8
2022-12-08T13:37:06.694Z,678.8
2022-12-08T13:38:09.184Z,678.7
2022-12-08T13:39:11.687Z,679
2022-12-08T13:40:14.183Z,678.8
2022-12-08T13:41:16.383Z,678.4
2022-12-08T13:42:18.886Z,678.6
2022-12-08T13:43:20.568Z,678.3
2022-12-08T13:58:01.722Z,678.8
2022-12-08T13:59:03.986Z,678
2022-12-08T14:00:06.229Z,679
2022-12-08T14:01:08.804Z,678.1
2022-12-08T14:02:11.370Z,678.5
2022-12-08T14:03:13.868Z,677.9
2022-12-08T14:06:26.364Z,678.1
2022-12-08T14:07:28.561Z,677.9
2022-12-08T14:09:36.088Z,678.3
2022-12-08T14:10:38.274Z,677.6
2022-12-08T14:11:40.224Z,677.4